createdAt,value
2018-09-28T00:01:17.408Z,71.82
2018-09-28T00:03:46.423Z,72.95
2018-09-28T00:06:15.463Z,68.30
2018-09-28T00:08:44.604Z,68.85
2018-09-28T00:11:13.595Z,67.97
2018-09-28T00:13:42.689Z,67.30
2018-09-28T00:16:11.682Z,67.85
2018-09-28T00:18:40.776Z,63.58
2018-09-28T00:21:09.802Z,63.75
2018-09-28T00:23:38.796Z,61.42
2018-09-28T00:26:08.159Z,64.40
2018-09-28T00:28:36.984Z,63.15
2018-09-28T00:31:06.079Z,60.15
2018-09-28T00:33:35.072Z,60.23
2018-09-28T00:36:04.165Z,59.83
2018-09-28T00:38:33.156Z,59.08
2018-09-28T00:41:02.199Z,59.55
2018-09-28T00:43:31.039Z,58.50
2018-09-28T00:46:00.033Z,57.15
2018-09-28T00:48:29.229Z,56.98
2018-09-28T00:50:58.224Z,55.05
2018-09-28T00:53:27.417Z,55.35
2018-09-28T00:55:56.576Z,54.13
2018-09-28T00:58:25.566Z,54.23
2018-09-28T01:00:54.600Z,54.15
2018-09-28T01:03:23.572Z,54.13
2018-09-28T01:05:52.582Z,52.85
2018-09-28T01:08:21.420Z,52.62
2018-09-28T01:10:50.359Z,50.73
2018-09-28T01:13:19.411Z,49.48
2018-09-28T01:15:48.716Z,47.70
2018-09-28T01:18:17.855Z,50.23
2018-09-28T01:20:47.008Z,47.62
2018-09-28T01:23:16.136Z,47.80
2018-09-28T01:25:45.131Z,48.33
2018-09-28T01:28:14.335Z,45.45
2018-09-28T01:30:43.485Z,45.65
2018-09-28T01:33:12.587Z,46.30
2018-09-28T01:35:41.673Z,43.42
2018-09-28T01:38:10.623Z,43.75
2018-09-28T01:40:39.869Z,44.30
2018-09-28T01:43:08.960Z,44.00
2018-09-28T01:45:38.363Z,42.78
2018-09-28T01:48:07.337Z,42.17
2018-09-28T01:50:36.452Z,41.60
2018-09-28T01:53:05.475Z,41.88
2018-09-28T01:55:34.467Z,41.48
2018-09-28T01:58:03.462Z,41.00
2018-09-28T02:00:32.521Z,39.27
2018-09-28T02:03:01.452Z,39.75
2018-09-28T02:05:30.436Z,39.80
2018-09-28T02:07:59.434Z,39.15
2018-09-28T02:10:28.392Z,37.53
2018-09-28T02:12:57.748Z,37.63
2018-09-28T02:15:26.817Z,38.63
2018-09-28T02:17:55.912Z,37.45
2018-09-28T02:20:26.121Z,37.50
2018-09-28T02:22:56.263Z,37.10
2018-09-28T02:25:25.419Z,36.28
2018-09-28T02:27:54.504Z,35.33
2018-09-28T02:30:23.497Z,34.75
2018-09-28T02:32:52.493Z,33.48
2018-09-28T02:35:21.504Z,32.75
2018-09-28T02:37:50.516Z,34.80
2018-09-28T02:40:19.702Z,31.50
2018-09-28T02:42:48.672Z,34.30
2018-09-28T02:45:17.696Z,34.20
2018-09-28T02:47:47.265Z,33.70
2018-09-28T02:50:16.219Z,31.42
2018-09-28T02:52:45.560Z,32.28
2018-09-28T02:55:14.552Z,32.08
2018-09-28T02:57:43.560Z,29.77
2018-09-28T03:00:12.533Z,28.92
2018-09-28T03:02:41.648Z,30.10
2018-09-28T03:05:10.559Z,30.97
2018-09-28T03:07:39.657Z,29.50
2018-09-28T03:10:09.088Z,28.55
2018-09-28T03:12:38.116Z,28.38
2018-09-28T03:15:10.006Z,27.93
2018-09-28T03:17:39.107Z,28.27
2018-09-28T03:20:08.506Z,28.17
2018-09-28T03:22:37.823Z,28.15
2018-09-28T03:25:09.753Z,26.68
2018-09-28T03:27:38.825Z,26.93
2018-09-28T03:30:09.324Z,25.75
2018-09-28T03:32:38.406Z,25.85
2018-09-28T03:35:09.968Z,26.35
2018-09-28T03:37:39.392Z,27.00
2018-09-28T03:40:12.024Z,25.48
2018-09-28T03:42:41.012Z,23.65
2018-09-28T03:45:10.069Z,24.85
2018-09-28T03:47:40.031Z,24.63
2018-09-28T03:50:10.583Z,25.92
2018-09-28T03:52:39.604Z,24.00
2018-09-28T03:55:09.008Z,24.05
2018-09-28T03:57:37.928Z,23.12
2018-09-28T04:00:07.867Z,23.40
2018-09-28T04:02:36.932Z,22.98
2018-09-28T04:05:06.045Z,23.85
2018-09-28T04:07:35.443Z,22.00
2018-09-28T04:10:04.491Z,22.80
2018-09-28T04:12:33.644Z,20.60
2018-09-28T04:15:02.638Z,19.27
2018-09-28T04:17:31.694Z,11.50
2018-09-28T04:20:00.717Z,8.55
2018-09-28T04:22:29.647Z,10.58
2018-09-28T04:24:59.380Z,9.18
2018-09-28T04:27:28.382Z,9.10
2018-09-28T04:29:57.843Z,11.08
2018-09-28T04:32:27.152Z,12.68
2018-09-28T04:34:56.184Z,8.60
2018-09-28T04:37:25.132Z,11.05
2018-09-28T04:39:54.195Z,11.63
2018-09-28T04:42:23.197Z,12.88
2018-09-28T04:44:52.320Z,11.88
2018-09-28T04:47:21.216Z,12.78
2018-09-28T04:49:50.512Z,12.58
2018-09-28T04:52:19.508Z,13.20
2018-09-28T04:54:48.575Z,13.08
2018-09-28T04:57:18.207Z,12.20
2018-09-28T04:59:47.264Z,12.50
2018-09-28T05:02:16.368Z,13.30
2018-09-28T05:04:45.447Z,12.23
2018-09-28T05:07:14.424Z,17.95
2018-09-28T05:09:44.120Z,18.45
2018-09-28T05:12:13.063Z,16.65
2018-09-28T05:14:42.084Z,18.73
2018-09-28T05:17:11.077Z,14.65
2018-09-28T05:19:40.167Z,36.40
2018-09-28T05:22:09.264Z,29.37
2018-09-28T05:24:38.310Z,39.75
2018-09-28T05:27:07.412Z,73.20
2018-09-28T05:29:36.932Z,46.85
2018-09-28T05:32:06.390Z,29.27
2018-09-28T05:34:35.105Z,36.42
2018-09-28T05:37:04.586Z,27.52
2018-09-28T05:39:33.745Z,26.70
2018-09-28T05:42:02.715Z,27.22
2018-09-28T05:44:31.556Z,29.98
2018-09-28T05:47:00.532Z,28.45
2018-09-28T05:49:29.425Z,28.50
2018-09-28T05:51:58.412Z,28.40
2018-09-28T05:54:27.408Z,27.25
2018-09-28T05:56:56.603Z,27.87
2018-09-28T05:59:30.889Z,26.02
2018-09-28T06:02:04.992Z,25.72
2018-09-28T06:04:38.978Z,23.92
2018-09-28T06:07:08.273Z,23.87
2018-09-28T06:09:37.264Z,24.07
2018-09-28T06:12:06.688Z,25.05
2018-09-28T06:14:35.655Z,23.65
2018-09-28T06:17:04.684Z,22.30
2018-09-28T06:19:34.028Z,25.68
2018-09-28T06:22:03.524Z,27.32
2018-09-28T06:24:32.625Z,23.62
2018-09-28T06:27:02.090Z,36.40
2018-09-28T06:29:31.084Z,41.55
2018-09-28T06:32:00.013Z,29.80
2018-09-28T06:34:28.968Z,32.65
2018-09-28T06:36:57.992Z,32.50
2018-09-28T06:39:26.980Z,35.20
2018-09-28T06:41:56.080Z,48.05
2018-09-28T06:44:25.171Z,45.48
2018-09-28T06:46:54.419Z,39.23
2018-09-28T06:49:23.633Z,37.08
2018-09-28T06:51:53.037Z,32.20
2018-09-28T06:54:21.860Z,29.05
2018-09-28T06:56:51.021Z,24.35
2018-09-28T06:59:20.825Z,26.45
2018-09-28T07:01:49.977Z,25.37
2018-09-28T07:04:19.283Z,26.25
2018-09-28T07:06:48.507Z,24.55
2018-09-28T07:09:17.579Z,23.50
2018-09-28T07:11:47.138Z,26.60
2018-09-28T07:14:16.308Z,27.75
2018-09-28T07:16:45.428Z,27.50
2018-09-28T07:19:14.512Z,26.35
2018-09-28T07:21:43.604Z,27.13
2018-09-28T07:24:12.746Z,25.55
2018-09-28T07:26:42.133Z,25.55
2018-09-28T07:29:10.992Z,24.82
2018-09-28T07:31:40.408Z,25.80
2018-09-28T07:34:09.460Z,25.43
2018-09-28T07:36:38.703Z,25.80
2018-09-28T07:39:10.407Z,25.68
2018-09-28T07:41:39.642Z,25.40
2018-09-28T07:44:08.900Z,25.30
2018-09-28T07:46:38.181Z,24.57
2018-09-28T07:49:07.523Z,24.98
2018-09-28T07:51:36.848Z,23.98
2018-09-28T07:54:06.379Z,24.80
2018-09-28T07:56:35.339Z,24.15
2018-09-28T07:59:04.715Z,24.45
2018-09-28T08:01:33.732Z,23.92
2018-09-28T08:04:02.711Z,23.52
2018-09-28T08:06:31.656Z,21.55
2018-09-28T08:09:00.573Z,23.02
2018-09-28T08:11:29.623Z,22.42
2018-09-28T08:13:58.730Z,23.85
2018-09-28T08:16:27.820Z,23.30
2018-09-28T08:18:56.924Z,23.60
2018-09-28T08:21:26.125Z,22.30
2018-09-28T08:23:55.693Z,21.33
2018-09-28T08:26:25.395Z,21.37
2018-09-28T08:28:54.567Z,21.27
2018-09-28T08:31:23.629Z,22.32
2018-09-28T08:33:52.746Z,21.50
2018-09-28T08:36:21.748Z,21.75
2018-09-28T08:38:51.151Z,21.37
2018-09-28T08:41:20.176Z,22.00
2018-09-28T08:43:49.477Z,21.10
2018-09-28T08:46:18.935Z,20.75
2018-09-28T08:48:48.078Z,22.65
2018-09-28T08:51:17.224Z,22.10
2018-09-28T08:53:46.300Z,20.92
2018-09-28T08:56:15.412Z,21.48
2018-09-28T08:58:44.558Z,19.95
2018-09-28T09:01:13.688Z,20.52
2018-09-28T09:03:42.788Z,20.15
2018-09-28T09:06:11.872Z,20.82
2018-09-28T09:08:41.052Z,22.50
2018-09-28T09:11:10.000Z,20.10
2018-09-28T09:13:39.311Z,20.30
2018-09-28T09:16:08.675Z,19.98
2018-09-28T09:18:37.896Z,20.50
2018-09-28T09:21:07.024Z,19.92
2018-09-28T09:23:36.209Z,19.92
2018-09-28T09:26:05.637Z,20.15
2018-09-28T09:28:34.663Z,20.08
2018-09-28T09:31:03.676Z,19.30
2018-09-28T09:33:32.699Z,19.80
2018-09-28T09:36:01.729Z,20.25
2018-09-28T09:38:30.615Z,19.77
2018-09-28T09:40:59.609Z,18.82
2018-09-28T09:43:28.616Z,18.90
2018-09-28T09:45:57.733Z,19.77
2018-09-28T09:48:27.072Z,20.40
2018-09-28T09:50:56.095Z,19.40
2018-09-28T09:53:25.288Z,18.55
2018-09-28T09:55:54.544Z,18.50
2018-09-28T09:58:23.861Z,18.82
2018-09-28T10:00:57.905Z,19.77
2018-09-28T10:03:31.880Z,18.85
2018-09-28T10:06:01.088Z,18.42
2018-09-28T10:08:30.124Z,19.05
2018-09-28T10:10:59.157Z,18.07
2018-09-28T10:13:28.049Z,17.55
2018-09-28T10:15:57.240Z,19.45
2018-09-28T10:18:26.557Z,17.82
2018-09-28T10:20:55.532Z,17.77
2018-09-28T10:23:24.554Z,18.25
2018-09-28T10:25:53.724Z,17.85
2018-09-28T10:28:22.878Z,17.65
2018-09-28T10:30:52.052Z,17.95
2018-09-28T10:33:21.276Z,17.92
2018-09-28T10:35:50.332Z,17.57
2018-09-28T10:38:19.689Z,17.02
2018-09-28T10:40:49.327Z,16.52
2018-09-28T10:43:18.456Z,17.07
2018-09-28T10:45:47.899Z,16.87
2018-09-28T10:48:17.428Z,16.60
2018-09-28T10:50:46.675Z,16.55
2018-09-28T10:53:16.082Z,17.27
2018-09-28T10:55:45.257Z,16.70
2018-09-28T10:58:14.628Z,16.93
2018-09-28T11:00:43.872Z,16.35
2018-09-28T11:03:13.268Z,16.10
2018-09-28T11:05:42.215Z,15.80
2018-09-28T11:08:11.688Z,15.75
2018-09-28T11:10:40.697Z,14.95
2018-09-28T11:13:09.633Z,16.12
2018-09-28T11:15:38.959Z,14.73
2018-09-28T11:18:08.395Z,15.13
2018-09-28T11:20:37.323Z,15.03
2018-09-28T11:23:07.780Z,15.98
2018-09-28T11:25:37.320Z,15.68
2018-09-28T11:28:07.824Z,15.60
2018-09-28T11:30:37.003Z,15.13
2018-09-28T11:33:08.137Z,14.75
2018-09-28T11:35:37.742Z,15.30
2018-09-28T11:38:07.916Z,14.80
2018-09-28T11:40:37.239Z,15.13
2018-09-28T11:43:09.192Z,14.95
2018-09-28T11:45:38.221Z,14.98
2018-09-28T11:48:08.371Z,15.00
2018-09-28T11:50:37.321Z,15.78
2018-09-28T11:53:07.688Z,14.78
2018-09-28T11:55:36.676Z,14.65
2018-09-28T11:58:08.336Z,13.65
2018-09-28T12:00:37.589Z,13.62
2018-09-28T12:03:08.324Z,14.07
2018-09-28T12:05:38.105Z,12.80
2018-09-28T12:08:09.257Z,13.58
2018-09-28T12:10:38.796Z,13.72
2018-09-28T12:13:08.155Z,13.80
2018-09-28T12:15:37.400Z,12.55
2018-09-28T12:18:07.882Z,13.88
2018-09-28T12:20:36.986Z,13.38
2018-09-28T12:23:08.966Z,14.03
2018-09-28T12:25:37.994Z,12.75
2018-09-28T12:28:08.895Z,13.32
2018-09-28T12:30:38.285Z,13.15
2018-09-28T12:33:08.059Z,12.98
2018-09-28T12:35:37.240Z,13.08
2018-09-28T12:38:08.304Z,12.80
2018-09-28T12:40:38.968Z,13.13
2018-09-28T12:43:08.610Z,12.60
2018-09-28T12:45:38.067Z,12.73
2018-09-28T12:48:08.668Z,12.70
2018-09-28T12:50:38.050Z,12.80
2018-09-28T12:53:08.428Z,12.55
2018-09-28T12:55:37.331Z,12.03
2018-09-28T12:58:08.715Z,12.40
2018-09-28T13:00:38.140Z,12.35
2018-09-28T13:03:07.314Z,12.13
2018-09-28T13:05:36.615Z,12.03
2018-09-28T13:08:05.797Z,11.30
2018-09-28T13:10:34.876Z,12.63
2018-09-28T13:13:04.651Z,11.93
2018-09-28T13:15:33.539Z,11.88
2018-09-28T13:18:02.576Z,11.80
2018-09-28T13:20:31.515Z,12.10
2018-09-28T13:23:00.539Z,11.68
2018-09-28T13:25:29.521Z,11.73
2018-09-28T13:27:58.559Z,11.83
2018-09-28T13:30:28.264Z,10.95
2018-09-28T13:32:57.261Z,11.20
2018-09-28T13:35:26.428Z,11.10
2018-09-28T13:37:55.502Z,11.28
2018-09-28T13:40:24.592Z,11.10
2018-09-28T13:42:53.940Z,11.22
2018-09-28T13:45:22.938Z,10.95
2018-09-28T13:47:51.876Z,11.00
2018-09-28T13:50:21.840Z,10.80
2018-09-28T13:52:51.317Z,10.38
2018-09-28T13:55:20.328Z,10.75
2018-09-28T13:57:49.525Z,11.88
2018-09-28T14:00:18.875Z,10.20
2018-09-28T14:02:47.992Z,10.25
2018-09-28T14:05:17.186Z,10.82
2018-09-28T14:07:46.203Z,10.10
2018-09-28T14:10:15.590Z,10.58
2018-09-28T14:12:44.676Z,10.08
2018-09-28T14:15:14.485Z,9.90
2018-09-28T14:17:43.667Z,10.35
2018-09-28T14:20:13.643Z,9.90
2018-09-28T14:22:43.739Z,10.15
2018-09-28T14:25:12.752Z,10.08
2018-09-28T14:27:41.912Z,9.48
2018-09-28T14:30:11.089Z,10.00
2018-09-28T14:32:40.687Z,9.58
2018-09-28T14:35:10.682Z,9.48
2018-09-28T14:37:40.105Z,9.18
2018-09-28T14:40:09.559Z,8.68
2018-09-28T14:42:40.116Z,8.98
2018-09-28T14:45:09.540Z,8.70
2018-09-28T14:47:39.025Z,9.10
2018-09-28T14:50:08.076Z,9.68
2018-09-28T14:52:37.150Z,8.70
2018-09-28T14:55:06.624Z,9.45
2018-09-28T14:57:36.484Z,8.68
2018-09-28T15:00:05.923Z,8.75
2018-09-28T15:02:36.865Z,8.88
2018-09-28T15:05:06.238Z,9.15
2018-09-28T15:07:36.435Z,9.10
2018-09-28T15:10:05.377Z,9.05
2018-09-28T15:12:34.502Z,8.53
2018-09-28T15:15:03.676Z,8.55
2018-09-28T15:17:33.020Z,8.78
2018-09-28T15:20:02.253Z,8.65
2018-09-28T15:22:31.245Z,7.83
2018-09-28T15:25:00.279Z,8.90
2018-09-28T15:27:30.717Z,8.08
2018-09-28T15:30:00.529Z,8.15
2018-09-28T15:32:29.613Z,8.25
2018-09-28T15:34:59.365Z,8.33
2018-09-28T15:37:28.335Z,8.23
2018-09-28T15:39:58.789Z,7.17
2018-09-28T15:42:28.369Z,8.25
2018-09-28T15:44:57.381Z,7.55
2018-09-28T15:47:27.176Z,6.78
2018-09-28T15:49:57.239Z,6.78
2018-09-28T15:52:26.630Z,7.50
2018-09-28T15:54:55.628Z,7.25
2018-09-28T15:57:29.028Z,7.00
2018-09-28T15:59:58.688Z,6.97
2018-09-28T16:02:29.023Z,6.85
2018-09-28T16:05:00.340Z,7.62
2018-09-28T16:07:29.315Z,6.80
2018-09-28T16:09:58.949Z,6.90
2018-09-28T16:12:27.951Z,6.50
2018-09-28T16:14:56.916Z,6.55
2018-09-28T16:17:25.890Z,6.90
2018-09-28T16:19:55.312Z,6.25
2018-09-28T16:22:24.461Z,6.40
2018-09-28T16:24:53.837Z,6.35
2018-09-28T16:27:22.808Z,6.17
2018-09-28T16:29:51.813Z,6.65
2018-09-28T16:32:20.814Z,6.90
2018-09-28T16:34:49.725Z,7.20
2018-09-28T16:37:19.125Z,7.00
2018-09-28T16:39:48.195Z,6.40
2018-09-28T16:42:17.288Z,6.62
2018-09-28T16:44:46.576Z,6.20
2018-09-28T16:47:15.554Z,6.30
2018-09-28T16:49:44.772Z,6.40
2018-09-28T16:52:14.340Z,6.62
2018-09-28T16:54:43.592Z,6.35
2018-09-28T16:57:12.803Z,6.28
2018-09-28T16:59:41.899Z,6.00
2018-09-28T17:02:10.989Z,6.20
2018-09-28T17:04:40.795Z,6.37
2018-09-28T17:07:10.419Z,5.78
2018-09-28T17:09:39.444Z,5.75
2018-09-28T17:12:08.935Z,6.20
2018-09-28T17:14:37.908Z,5.65
2018-09-28T17:17:07.116Z,5.95
2018-09-28T17:19:36.245Z,7.92
2018-09-28T17:22:05.412Z,7.22
2018-09-28T17:24:34.442Z,8.45
2018-09-28T17:27:04.286Z,7.08
2018-09-28T17:29:33.849Z,7.75
2018-09-28T17:32:03.253Z,7.35
2018-09-28T17:34:32.303Z,7.90
2018-09-28T17:37:01.392Z,7.87
2018-09-28T17:39:30.904Z,7.35
2018-09-28T17:41:59.941Z,7.35
2018-09-28T17:44:29.094Z,7.85
2018-09-28T17:46:58.092Z,10.80
2018-09-28T17:49:27.434Z,11.20
2018-09-28T17:51:56.684Z,13.98
2018-09-28T17:54:25.596Z,9.80
2018-09-28T17:56:54.618Z,11.30
2018-09-28T17:59:23.794Z,12.05
2018-09-28T18:01:53.113Z,10.88
2018-09-28T18:04:22.192Z,11.08
2018-09-28T18:06:51.089Z,10.45
2018-09-28T18:09:20.284Z,10.38
2018-09-28T18:11:49.380Z,10.13
2018-09-28T18:14:18.494Z,9.98
2018-09-28T18:16:47.644Z,10.40
2018-09-28T18:19:16.602Z,9.58
2018-09-28T18:21:45.951Z,9.28
2018-09-28T18:24:15.048Z,9.20
2018-09-28T18:26:44.089Z,9.38
2018-09-28T18:29:13.102Z,10.05
2018-09-28T18:31:42.605Z,9.20
2018-09-28T18:34:12.072Z,10.00
2018-09-28T18:36:41.196Z,9.45
2018-09-28T18:39:10.654Z,9.25
2018-09-28T18:41:39.826Z,9.63
2018-09-28T18:44:09.145Z,9.75
2018-09-28T18:46:38.512Z,13.50
2018-09-28T18:49:07.491Z,11.22
2018-09-28T18:51:36.696Z,11.90
2018-09-28T18:54:05.748Z,15.48
2018-09-28T18:56:34.776Z,16.62
2018-09-28T18:59:03.825Z,23.15
2018-09-28T19:01:33.463Z,21.42
2018-09-28T19:04:07.809Z,19.52
2018-09-28T19:06:36.813Z,16.97
2018-09-28T19:09:12.657Z,19.20
2018-09-28T19:11:42.624Z,28.10
2018-09-28T19:14:12.390Z,24.50
2018-09-28T19:16:41.692Z,20.75
2018-09-28T19:19:11.457Z,19.40
2018-09-28T19:21:41.346Z,22.52
2018-09-28T19:24:10.924Z,21.30
2018-09-28T19:26:40.279Z,25.23
2018-09-28T19:29:10.896Z,26.45
2018-09-28T19:31:40.367Z,24.82
2018-09-28T19:34:09.483Z,24.37
2018-09-28T19:36:38.592Z,29.10
2018-09-28T19:39:10.067Z,41.10
2018-09-28T19:41:39.691Z,35.63
2018-09-28T19:44:10.541Z,35.25
2018-09-28T19:46:39.633Z,39.38
2018-09-28T19:49:08.658Z,28.87
2018-09-28T19:51:37.680Z,41.80
2018-09-28T19:54:06.752Z,35.20
2018-09-28T19:56:35.853Z,40.43
2018-09-28T19:59:04.887Z,40.35
2018-09-28T20:01:34.016Z,46.92
2018-09-28T20:04:03.141Z,43.28
2018-09-28T20:06:32.206Z,43.55
2018-09-28T20:09:01.327Z,47.55
2018-09-28T20:11:30.332Z,48.00
2018-09-28T20:13:59.452Z,55.67
2018-09-28T20:16:28.604Z,52.95
2018-09-28T20:18:58.061Z,54.98
2018-09-28T20:21:27.073Z,60.38
2018-09-28T20:23:56.341Z,58.33
2018-09-28T20:26:25.373Z,61.65
2018-09-28T20:28:54.479Z,62.48
2018-09-28T20:31:23.603Z,66.20
2018-09-28T20:33:52.711Z,63.08
2018-09-28T20:36:21.570Z,96.60
2018-09-28T20:38:50.597Z,84.13
2018-09-28T20:41:20.451Z,77.58
2018-09-28T20:43:49.622Z,96.57
2018-09-28T20:46:18.708Z,93.30
2018-09-28T20:48:47.884Z,92.27
2018-09-28T20:51:16.728Z,105.03
2018-09-28T20:53:45.881Z,82.05
2018-09-28T20:56:14.954Z,78.62
2018-09-28T20:58:44.051Z,77.75
2018-09-28T21:01:12.996Z,82.53
2018-09-28T21:03:42.031Z,79.87
2018-09-28T21:06:11.317Z,79.60
2018-09-28T21:08:40.437Z,85.62
2018-09-28T21:11:09.408Z,85.20
2018-09-28T21:13:38.233Z,83.40
2018-09-28T21:16:07.124Z,84.10
2018-09-28T21:18:36.044Z,85.15
2018-09-28T21:21:05.104Z,81.05
2018-09-28T21:23:34.073Z,94.40
2018-09-28T21:26:03.087Z,96.72
2018-09-28T21:28:32.050Z,122.95
2018-09-28T21:31:01.885Z,139.32
2018-09-28T21:33:30.885Z,110.60
2018-09-28T21:36:00.257Z,110.50
2018-09-28T21:38:29.253Z,104.38
2018-09-28T21:40:58.172Z,99.47
2018-09-28T21:43:27.131Z,112.70
2018-09-28T21:45:56.160Z,115.42
2018-09-28T21:48:25.271Z,117.45
2018-09-28T21:50:54.654Z,116.62
2018-09-28T21:53:23.745Z,120.22
2018-09-28T21:55:52.750Z,116.25
2018-09-28T21:58:21.673Z,116.45
2018-09-28T22:00:56.055Z,115.88
2018-09-28T22:03:25.414Z,114.45
2018-09-28T22:05:54.733Z,114.08
2018-09-28T22:08:23.757Z,113.55
2018-09-28T22:10:52.848Z,119.02
2018-09-28T22:13:21.623Z,113.12
2018-09-28T22:15:50.615Z,113.88
2018-09-28T22:18:19.511Z,114.47
2018-09-28T22:20:48.511Z,110.72
2018-09-28T22:23:17.506Z,109.65
2018-09-28T22:25:46.487Z,117.80
2018-09-28T22:28:15.492Z,115.60
2018-09-28T22:30:44.475Z,113.72
2018-09-28T22:33:13.473Z,117.85
2018-09-28T22:35:42.559Z,120.70
2018-09-28T22:38:11.599Z,120.42
2018-09-28T22:40:40.651Z,120.45
2018-09-28T22:43:09.540Z,121.02
2018-09-28T22:45:38.618Z,122.67
2018-09-28T22:48:07.927Z,122.87
2018-09-28T22:50:36.925Z,119.42
2018-09-28T22:53:06.092Z,119.60
2018-09-28T22:55:35.112Z,120.57
2018-09-28T22:58:04.071Z,122.85
2018-09-28T23:00:33.094Z,119.67
2018-09-28T23:03:02.081Z,118.65
2018-09-28T23:05:31.432Z,118.50
2018-09-28T23:08:00.684Z,124.02
2018-09-28T23:10:29.693Z,121.00
2018-09-28T23:12:58.876Z,117.85
2018-09-28T23:15:27.932Z,118.80
2018-09-28T23:17:56.763Z,118.75
2018-09-28T23:20:26.219Z,120.47
2018-09-28T23:22:55.223Z,120.45
2018-09-28T23:25:24.346Z,118.77
2018-09-28T23:27:53.553Z,118.82
2018-09-28T23:30:22.532Z,117.87
2018-09-28T23:32:51.532Z,116.67
2018-09-28T23:35:20.352Z,117.50
2018-09-28T23:37:50.098Z,115.42
2018-09-28T23:40:19.091Z,116.10
2018-09-28T23:42:48.600Z,113.15
2018-09-28T23:45:17.899Z,116.17
2018-09-28T23:47:46.868Z,115.08
2018-09-28T23:50:15.884Z,111.77
2018-09-28T23:52:44.872Z,112.57
2018-09-28T23:55:13.897Z,112.88
2018-09-28T23:57:42.891Z,110.05
